Time;durP1;ratioP1;P1;durP2;ratioP2;P2;SDS_P1;SDS_P2;PMS_P1;PMS_P2;Temp;Humidity;BMP_temperature;BMP_pressure;BME280_temperature;BME280_humidity;BME280_pressure;Samples;Min_cycle;Max_cycle;Signal;HPM_P1;HPM_P2
2021/04/13 00:02:37;;;;;;;2.30;1.40;;;;;;;17.63;53.61;103015.19;4915525;28;20044;-76
2021/04/13 00:05:08;;;;;;;3.45;1.80;;;;;;;17.64;53.74;103016.88;4951660;29;20035;-75
2021/04/13 00:07:38;;;;;;;2.95;1.50;;;;;;;17.66;53.68;103016.75;4950692;28;20030;-76
2021/04/13 00:10:13;;;;;;;3.40;1.75;;;;;;;17.64;53.58;103014.22;4950654;28;20035;-76
2021/04/13 00:12:39;;;;;;;3.00;1.60;;;;;;;17.64;53.81;103019.53;4951796;28;20035;-76
2021/04/13 00:15:18;;;;;;;4.18;1.63;;;;;;;17.63;53.66;103007.22;4951762;28;20037;-77
2021/04/13 00:17:45;;;;;;;3.38;1.45;;;;;;;17.64;53.46;103008.06;4951472;28;20380;-76
2021/04/13 00:20:20;;;;;;;3.03;1.70;;;;;;;17.63;53.42;103009.88;4952022;29;20031;-76
2021/04/13 00:22:46;;;;;;;3.20;1.67;;;;;;;17.62;53.35;103010.84;4952572;29;20463;-76
2021/04/13 00:25:45;;;;;;;4.93;1.63;;;;;;;17.60;53.38;103009.31;4951345;28;20118;-76
2021/04/13 00:28:11;;;;;;;3.03;1.85;;;;;;;17.62;53.34;103015.31;4928471;28;20047;-76
2021/04/13 00:30:46;;;;;;;2.88;1.67;;;;;;;17.61;53.68;103013.66;4952049;29;20138;-76
2021/04/13 00:33:16;;;;;;;;;;;;;;;17.56;53.26;103015.84;4951774;28;20035;-76
2021/04/13 00:35:59;;;;;;;2.67;1.55;;;;;;;17.58;53.46;103013.91;4952639;29;19914;-75
2021/04/13 00:38:48;;;;;;;2.55;1.50;;;;;;;17.58;53.51;103016.56;4950720;28;20038;-76
2021/04/13 00:41:18;;;;;;;3.30;1.52;;;;;;;17.59;53.34;103010.28;4952615;29;20387;-76
2021/04/13 00:43:50;;;;;;;3.88;1.60;;;;;;;17.58;53.21;103014.75;4951083;28;20070;-76
2021/04/13 00:46:21;;;;;;;4.25;2.08;;;;;;;17.57;53.54;103020.19;4944882;28;20680;-76
2021/04/13 00:48:47;;;;;;;3.25;1.55;;;;;;;17.58;53.21;103016.56;4950827;29;20600;-73
2021/04/13 00:51:22;;;;;;;2.95;1.48;;;;;;;17.57;53.18;103028.16;4950955;28;20051;-74
2021/04/13 00:53:53;;;;;;;2.70;1.30;;;;;;;17.56;53.19;103024.66;4951045;29;20039;-72
2021/04/13 00:56:20;;;;;;;3.05;1.60;;;;;;;17.56;53.51;103022.00;4951534;28;20035;-76
2021/04/13 00:59:09;;;;;;;4.05;1.75;;;;;;;17.54;53.33;103023.13;4951297;28;20118;-76
2021/04/13 01:01:42;;;;;;;4.32;1.90;;;;;;;17.55;52.95;103024.78;4951305;29;20046;-75
2021/04/13 01:04:19;;;;;;;2.40;1.40;;;;;;;17.55;53.07;103019.47;4944327;28;20046;-75
2021/04/13 01:06:45;;;;;;;2.58;1.40;;;;;;;17.55;53.27;103019.47;4951516;28;20031;-76
2021/04/13 01:09:18;;;;;;;2.30;1.50;;;;;;;17.53;53.07;103019.63;4950347;28;20045;-76
2021/04/13 01:12:04;;;;;;;3.65;1.63;;;;;;;17.51;53.09;103016.22;4944165;28;20028;-75
2021/04/13 01:14:32;;;;;;;2.85;1.60;;;;;;;17.54;53.01;103020.47;4950901;29;20509;-76
2021/04/13 01:17:05;;;;;;;2.70;1.50;;;;;;;17.52;53.17;103019.75;4950547;28;20113;-75
2021/04/13 01:19:34;;;;;;;3.60;1.58;;;;;;;17.53;53.07;103018.78;4951634;29;20061;-75
2021/04/13 01:25:28;;;;;;;2.25;1.25;;;;;;;17.50;53.10;103016.34;4906780;29;20473;-76
2021/04/13 01:27:55;;;;;;;2.50;1.50;;;;;;;17.50;53.16;103022.50;4950820;28;20470;-76
2021/04/13 01:30:28;;;;;;;2.47;1.50;;;;;;;17.49;53.12;103026.13;4950429;28;20098;-76
2021/04/13 01:33:10;;;;;;;3.70;1.50;;;;;;;17.46;53.19;103023.75;4933228;29;20055;-76
2021/04/13 01:35:35;;;;;;;3.35;1.30;;;;;;;17.48;53.07;103019.13;4949369;28;20490;-75
2021/04/13 01:38:17;;;;;;;2.20;1.40;;;;;;;17.48;53.08;103020.97;4932826;29;20031;-76
2021/04/13 01:41:01;;;;;;;1.75;1.30;;;;;;;17.48;52.74;103019.13;4921112;29;20527;-75
2021/04/13 01:43:27;;;;;;;2.38;1.30;;;;;;;17.47;52.79;103016.63;4949989;28;20142;-76
2021/04/13 01:45:52;;;;;;;2.63;1.48;;;;;;;17.46;52.59;103021.09;4950586;28;20557;-76
2021/04/13 01:48:19;;;;;;;2.10;1.23;;;;;;;17.46;52.51;103023.75;4933099;29;20093;-75
2021/04/13 01:50:53;;;;;;;2.40;1.50;;;;;;;17.47;52.71;103024.56;4950466;28;20030;-76
2021/04/13 01:53:21;;;;;;;2.67;1.73;;;;;;;17.46;52.86;103022.91;4943954;29;20391;-76
2021/04/13 01:56:05;;;;;;;3.58;1.40;;;;;;;17.45;52.69;103021.22;4950582;28;20031;-72
2021/04/13 01:58:36;;;;;;;2.47;1.30;;;;;;;17.45;52.82;103018.56;4949611;28;20077;-76
2021/04/13 02:01:28;;;;;;;2.75;1.58;;;;;;;17.43;52.54;103020.50;4949235;28;20042;-76
2021/04/13 02:03:55;;;;;;;2.65;1.52;;;;;;;17.43;52.85;103010.75;4944946;28;20024;-76
2021/04/13 02:06:27;;;;;;;3.13;1.40;;;;;;;17.45;52.54;103013.25;4949886;29;20676;-72
2021/04/13 02:09:01;;;;;;;3.17;1.52;;;;;;;17.43;52.66;103008.09;4926696;28;20719;-74
2021/04/13 02:11:34;;;;;;;2.70;1.65;;;;;;;17.43;52.67;103015.19;4949261;28;20495;-76
2021/04/13 02:14:20;;;;;;;2.47;1.40;;;;;;;17.40;52.90;103018.97;4949548;28;20050;-76
2021/04/13 02:16:55;;;;;;;3.03;1.55;;;;;;;17.42;52.47;103018.84;4950073;28;20069;-76
2021/04/13 02:19:21;;;;;;;;;;;;;;;17.35;52.67;103018.47;4951157;29;20035;-76
2021/04/13 02:21:50;;;;;;;2.35;1.40;;;;;;;17.40;52.50;103018.13;4931687;29;19914;-75
2021/04/13 02:24:28;;;;;;;2.28;1.35;;;;;;;17.39;52.77;103013.78;4949529;28;20033;-76
2021/04/13 02:26:58;;;;;;;2.63;1.45;;;;;;;17.40;52.79;103015.47;4949420;28;20114;-76
2021/04/13 02:29:38;;;;;;;4.03;1.70;;;;;;;17.36;52.49;103018.38;4949681;28;20110;-76
2021/04/13 02:32:12;;;;;;;2.90;1.50;;;;;;;17.39;52.42;103024.41;4949863;29;20027;-75
2021/04/13 02:34:42;;;;;;;2.78;1.33;;;;;;;17.39;52.59;103016.44;4949541;28;20081;-75
2021/04/13 02:37:16;;;;;;;2.35;1.30;;;;;;;17.38;52.42;103023.56;4931931;29;20526;-75
2021/04/13 02:39:42;;;;;;;2.28;1.27;;;;;;;17.38;52.78;103025.38;4949635;29;20039;-76
2021/04/13 02:42:17;;;;;;;2.50;1.38;;;;;;;17.36;52.74;103029.00;4931792;29;20031;-75
2021/04/13 02:44:53;;;;;;;1.60;1.10;;;;;;;17.34;52.85;103025.59;4949655;29;20055;-76
2021/04/13 02:47:19;;;;;;;2.13;1.33;;;;;;;17.36;52.45;103026.34;4932647;29;20043;-76
2021/04/13 02:49:45;;;;;;;2.63;1.50;;;;;;;17.35;52.34;103027.28;4932706;29;20102;-75
2021/04/13 02:52:16;;;;;;;2.13;1.50;;;;;;;17.35;52.50;103029.09;4948607;28;20471;-74
2021/04/13 02:54:49;;;;;;;1.88;1.23;;;;;;;17.35;52.36;103032.59;4949655;29;20038;-75
2021/04/13 02:57:22;;;;;;;2.30;1.20;;;;;;;17.34;52.56;103032.72;4950054;28;20522;-76
2021/04/13 02:59:49;;;;;;;1.80;1.30;;;;;;;17.34;52.61;103033.56;4932457;29;20066;-75
2021/04/13 03:02:29;;;;;;;2.35;1.30;;;;;;;17.33;52.24;103033.69;4945200;28;20134;-76
2021/04/13 03:04:55;;;;;;;2.88;1.30;;;;;;;17.33;52.27;103039.84;4950437;29;20039;-76
2021/04/13 03:07:26;;;;;;;2.78;1.42;;;;;;;17.33;52.30;103042.50;4932358;29;20035;-76
2021/04/13 03:10:00;;;;;;;2.65;1.30;;;;;;;17.33;52.35;103037.19;4948919;28;20035;-75
2021/04/13 03:12:29;;;;;;;3.10;1.38;;;;;;;17.32;52.64;103032.84;4933628;29;20206;-75
2021/04/13 03:14:56;;;;;;;2.25;1.27;;;;;;;17.32;52.59;103035.50;4949988;28;20048;-75
2021/04/13 03:17:28;;;;;;;1.88;1.20;;;;;;;17.32;52.32;103035.50;4950003;28;20035;-76
2021/04/13 03:20:22;;;;;;;2.00;1.20;;;;;;;17.30;52.19;103037.44;4948048;28;20043;-75
2021/04/13 03:22:49;;;;;;;;;;;;;;;17.26;52.72;103030.72;4944078;28;20094;-74
2021/04/13 03:25:16;;;;;;;1.85;1.30;;;;;;;17.30;52.43;103032.13;4949143;28;19926;-75
2021/04/13 03:27:42;;;;;;;2.65;1.55;;;;;;;17.30;52.43;103034.78;4914295;29;20036;-75
2021/04/13 03:30:26;;;;;;;2.15;1.20;;;;;;;17.28;52.52;103034.09;4945563;28;20395;-75
2021/04/13 03:33:00;;;;;;;1.85;1.30;;;;;;;17.28;52.43;103034.09;4949832;28;20424;-75
2021/04/13 03:35:27;;;;;;;2.05;1.20;;;;;;;17.30;52.44;103033.94;4948102;28;20031;-75
2021/04/13 03:37:56;;;;;;;1.80;1.30;;;;;;;17.29;52.19;103030.47;4951096;28;20049;-75
2021/04/13 03:40:24;;;;;;;2.03;1.15;;;;;;;17.28;52.54;103030.59;4951692;28;20050;-76
2021/04/13 03:43:07;;;;;;;3.65;1.73;;;;;;;17.27;52.20;103032.41;4950539;29;20035;-76
2021/04/13 03:45:35;;;;;;;2.30;1.20;;;;;;;17.28;52.33;103026.13;4914214;29;20032;-75
2021/04/13 03:48:17;;;;;;;2.20;1.20;;;;;;;17.28;52.26;103031.44;4893839;29;20044;-76
2021/04/13 03:50:44;;;;;;;2.20;1.20;;;;;;;17.26;52.27;103035.19;4928109;29;20108;-75
2021/04/13 03:53:15;;;;;;;2.72;1.30;;;;;;;17.26;52.23;103037.84;4896273;29;20513;-75
2021/04/13 03:56:15;;;;;;;2.45;1.40;;;;;;;17.24;52.27;103042.44;4914519;29;20036;-75
2021/04/13 03:58:52;;;;;;;1.83;1.02;;;;;;;17.25;52.17;103042.31;4911022;29;20368;-72
2021/04/13 04:01:22;;;;;;;1.95;1.20;;;;;;;17.26;52.02;103045.78;4901449;29;20040;-74
2021/04/13 04:03:59;;;;;;;2.10;1.40;;;;;;;17.24;52.28;103045.94;4914109;29;20096;-72
2021/04/13 04:07:06;;;;;;;2.40;1.35;;;;;;;17.22;52.29;103039.91;4914245;29;20048;-75
2021/04/13 04:09:31;;;;;;;1.70;1.10;;;;;;;17.24;52.50;103040.63;4902862;29;20051;-76
2021/04/13 04:11:59;;;;;;;2.05;1.15;;;;;;;17.25;52.11;103041.47;4911816;29;20372;-76
2021/04/13 04:14:28;;;;;;;2.00;1.10;;;;;;;17.24;52.36;103037.97;4914594;29;20140;-76
2021/04/13 04:17:12;;;;;;;1.60;1.00;;;;;;;17.22;52.35;103036.41;4912769;29;20044;-76
2021/04/13 04:19:37;;;;;;;2.20;1.20;;;;;;;17.23;52.22;103035.44;4906476;29;20040;-75
2021/04/13 04:22:10;;;;;;;2.13;1.20;;;;;;;17.22;52.21;103039.91;4882983;29;20048;-75
2021/04/13 04:24:41;;;;;;;2.15;1.05;;;;;;;17.22;52.26;103039.91;4914299;29;20028;-75
2021/04/13 04:27:24;;;;;;;2.00;1.20;;;;;;;17.22;52.17;103036.41;4911880;29;20584;-76
2021/04/13 04:30:06;;;;;;;2.75;1.30;;;;;;;17.20;52.25;103036.53;4911542;29;20115;-76
2021/04/13 04:32:31;;;;;;;1.55;1.10;;;;;;;17.22;52.29;103045.22;4914016;29;20028;-76
2021/04/13 04:34:59;;;;;;;1.83;0.90;;;;;;;17.22;52.34;103047.88;4912992;29;20035;-76
2021/04/13 04:37:38;;;;;;;2.35;1.23;;;;;;;17.20;52.04;103041.84;4913541;29;20035;-76
2021/04/13 04:40:47;;;;;;;1.83;1.30;;;;;;;17.17;52.14;103044.72;4913430;29;20032;-75
2021/04/13 04:43:15;;;;;;;3.28;1.20;;;;;;;17.20;52.10;103052.47;4825691;29;20051;-76
2021/04/13 04:45:43;;;;;;;2.00;0.90;;;;;;;17.20;51.96;103054.25;4936529;29;20046;-76
2021/04/13 04:48:26;;;;;;;2.90;1.10;;;;;;;17.19;52.03;103052.56;4950718;28;20036;-75
2021/04/13 04:50:54;;;;;;;2.13;1.20;;;;;;;17.20;52.22;103057.75;4946251;28;20424;-76
2021/04/13 04:53:20;;;;;;;2.70;1.23;;;;;;;17.19;52.21;103053.41;4951126;29;20106;-75
2021/04/13 04:55:54;;;;;;;1.77;1.10;;;;;;;17.18;52.28;103059.66;4952201;29;20054;-75
2021/04/13 04:58:20;;;;;;;2.33;1.10;;;;;;;17.18;52.11;103057.03;4951373;29;20035;-76
2021/04/13 05:00:47;;;;;;;2.25;1.27;;;;;;;17.18;52.30;103056.19;4915165;29;20527;-76
2021/04/13 05:03:14;;;;;;;2.63;1.20;;;;;;;17.18;52.24;103061.47;4929970;28;20070;-76
2021/04/13 05:05:40;;;;;;;1.77;1.05;;;;;;;17.17;52.00;103060.63;4915430;29;20055;-75
2021/04/13 05:08:06;;;;;;;1.55;1.02;;;;;;;17.18;52.13;103059.66;4929548;28;20117;-75
2021/04/13 05:10:31;;;;;;;2.42;1.30;;;;;;;17.17;52.10;103055.34;4927421;29;20042;-76
2021/04/13 05:12:56;;;;;;;2.47;1.10;;;;;;;17.17;52.01;103057.16;4928527;29;20039;-76
2021/04/13 05:15:22;;;;;;;1.88;1.17;;;;;;;17.17;52.06;103057.16;4918482;29;20043;-76
2021/04/13 05:17:47;;;;;;;2.00;1.08;;;;;;;17.17;51.92;103058.00;4951027;28;20035;-76
2021/04/13 05:20:13;;;;;;;2.20;1.27;;;;;;;17.17;51.77;103060.63;4933378;29;20039;-76
2021/04/13 05:22:39;;;;;;;1.70;0.95;;;;;;;17.17;51.89;103055.34;4950616;28;20042;-76
2021/04/13 05:25:05;;;;;;;1.40;0.85;;;;;;;17.19;52.11;103066.66;4950566;29;20039;-76
2021/04/13 05:27:30;;;;;;;1.95;1.08;;;;;;;17.19;52.12;103056.06;4951570;29;20039;-76
2021/04/13 05:29:56;;;;;;;1.77;1.10;;;;;;;17.18;52.04;103057.03;4949201;28;20470;-76
2021/04/13 05:32:21;;;;;;;1.70;1.00;;;;;;;17.18;52.20;103051.72;4932910;29;20054;-76
2021/04/13 05:34:46;;;;;;;1.85;1.20;;;;;;;17.19;51.93;103050.75;4921238;29;20048;-75
2021/04/13 05:37:12;;;;;;;1.67;1.10;;;;;;;17.19;51.71;103061.34;4950225;28;20035;-76
2021/04/13 05:39:38;;;;;;;1.30;0.90;;;;;;;17.20;52.11;103064.84;4943569;28;20126;-75
2021/04/13 05:42:06;;;;;;;1.52;1.02;;;;;;;17.20;52.00;103060.41;4950156;28;20036;-75
2021/04/13 05:44:31;;;;;;;1.58;1.08;;;;;;;17.23;51.93;103064.63;4951312;29;20058;-76
2021/04/13 05:46:57;;;;;;;1.13;0.80;;;;;;;17.23;52.03;103064.63;4933369;29;20031;-75
2021/04/13 05:49:22;;;;;;;1.65;0.93;;;;;;;17.25;52.28;103063.53;4933032;29;20110;-75
2021/04/13 05:51:48;;;;;;;2.17;1.00;;;;;;;17.28;52.13;103065.06;4951294;29;20043;-76
2021/04/13 05:54:13;;;;;;;1.77;1.08;;;;;;;17.29;51.98;103067.59;4931503;29;20039;-74
2021/04/13 05:56:41;;;;;;;1.65;0.95;;;;;;;17.32;52.10;103071.81;4949968;28;20347;-76
2021/04/13 05:59:09;;;;;;;1.95;0.95;;;;;;;17.35;52.13;103075.03;4951107;28;20035;-76
2021/04/13 06:01:35;;;;;;;1.23;0.90;;;;;;;17.39;51.86;103072.16;4950516;28;20031;-76
2021/04/13 06:04:03;;;;;;;1.42;1.00;;;;;;;17.43;52.18;103081.53;4913764;29;20036;-76
2021/04/13 06:06:28;;;;;;;1.90;1.00;;;;;;;17.45;52.17;103082.25;4929385;28;20138;-75
2021/04/13 06:08:54;;;;;;;1.60;1.10;;;;;;;17.51;52.16;103084.38;4940130;29;20126;-76
2021/04/13 06:11:27;;;;;;;2.28;1.10;;;;;;;17.54;51.83;103089.47;4950032;29;20399;-76
2021/04/13 06:13:55;;;;;;;1.83;1.10;;;;;;;17.60;51.82;103086.28;4932811;29;20065;-76
2021/04/13 06:16:22;;;;;;;1.38;0.90;;;;;;;17.64;52.15;103091.19;4938183;29;20085;-76
2021/04/13 06:18:48;;;;;;;2.58;1.23;;;;;;;17.70;51.90;103097.84;4916310;28;20043;-75
2021/04/13 06:21:14;;;;;;;1.67;0.90;;;;;;;17.76;51.93;103099.13;4950620;28;20054;-76
2021/04/13 06:23:39;;;;;;;2.13;1.17;;;;;;;17.81;51.98;103100.41;4931334;29;20030;-76
2021/04/13 06:26:05;;;;;;;2.72;1.00;;;;;;;17.85;52.23;103104.53;4950645;28;20035;-76
2021/04/13 06:28:31;;;;;;;2.22;0.90;;;;;;;17.90;52.22;103104.97;4932049;29;20031;-76
2021/04/13 06:30:56;;;;;;;2.10;1.08;;;;;;;17.94;51.86;103100.22;4916833;29;20119;-76
2021/04/13 06:33:22;;;;;;;2.17;1.10;;;;;;;17.97;52.12;103110.59;4949347;28;20050;-76
2021/04/13 06:35:48;;;;;;;2.00;1.13;;;;;;;18.01;51.86;103113.84;4924812;29;20706;-75
2021/04/13 06:38:17;;;;;;;1.92;1.00;;;;;;;18.04;51.83;103113.59;4942476;28;20642;-75
2021/04/13 06:40:52;;;;;;;1.80;1.00;;;;;;;18.07;52.10;103123.94;4960504;29;20031;-76
2021/04/13 06:43:39;;;;;;;3.40;1.70;;;;;;;18.09;52.21;103120.19;4952148;28;20031;-81
2021/04/13 06:46:19;;;;;;;2.47;1.33;;;;;;;18.12;52.42;103124.38;4946707;29;20132;-76
2021/04/13 06:48:58;;;;;;;3.67;1.23;;;;;;;18.14;53.09;103122.44;4931651;29;20047;-77
2021/04/13 06:51:41;;;;;;;2.78;1.20;;;;;;;18.16;53.15;103131.13;4933422;29;20371;-76
2021/04/13 06:54:36;;;;;;;3.55;1.42;;;;;;;18.16;53.24;103125.81;4948784;29;20035;-75
2021/04/13 06:57:23;;;;;;;3.53;1.35;;;;;;;18.17;53.20;103127.50;4921716;29;20039;-75
2021/04/13 07:00:01;;;;;;;4.18;1.30;;;;;;;18.18;53.22;103123.88;4949622;28;20115;-76
2021/04/13 07:02:36;;;;;;;5.53;1.35;;;;;;;18.21;53.21;103126.25;4950381;29;20183;-75
2021/04/13 07:05:09;;;;;;;2.85;1.52;;;;;;;18.19;53.35;103128.22;4947500;28;20082;-73
2021/04/13 07:07:43;;;;;;;4.63;1.45;;;;;;;18.19;53.82;103134.38;4946668;28;20549;-73
2021/04/13 07:10:20;;;;;;;5.13;1.80;;;;;;;18.18;53.56;103132.69;4949562;28;20059;-73
2021/04/13 07:12:53;;;;;;;3.80;1.60;;;;;;;18.18;53.79;103137.16;4952619;28;20109;-73
2021/04/13 07:15:31;;;;;;;4.30;1.50;;;;;;;18.17;53.83;103135.47;4951732;28;20094;-73
2021/04/13 07:18:03;;;;;;;3.97;1.60;;;;;;;18.16;54.26;103134.63;4935253;29;20031;-73
2021/04/13 07:20:35;;;;;;;5.43;1.63;;;;;;;18.17;54.06;103138.13;4934494;29;20027;-71
2021/04/13 07:23:06;;;;;;;7.60;1.80;;;;;;;18.15;53.96;103142.75;4950998;28;20043;-69
2021/04/13 07:25:42;;;;;;;7.22;1.85;;;;;;;18.15;54.13;103146.25;4951932;28;20041;-75
2021/04/13 07:28:12;;;;;;;3.95;1.70;;;;;;;18.16;54.08;103149.72;4951653;28;20182;-73
2021/04/13 07:30:50;;;;;;;7.30;1.63;;;;;;;18.13;53.93;103147.31;4946142;29;20027;-73
2021/04/13 07:33:25;;;;;;;8.50;2.00;;;;;;;18.13;53.87;103152.63;4951714;28;20035;-74
2021/04/13 07:35:57;;;;;;;10.73;2.35;;;;;;;18.13;53.82;103144.66;4953022;29;20094;-73
2021/04/13 07:38:29;;;;;;;8.63;2.45;;;;;;;18.11;54.01;103141.28;4949968;28;20034;-75
2021/04/13 07:41:05;;;;;;;9.80;2.25;;;;;;;18.10;53.55;103144.91;4952706;29;20102;-75
2021/04/13 07:43:35;;;;;;;7.18;1.90;;;;;;;18.10;53.76;103142.25;4952106;29;20055;-78
2021/04/13 07:46:01;;;;;;;10.30;2.90;;;;;;;18.09;53.43;103148.56;4952335;28;20478;-79
2021/04/13 07:48:54;;;;;;;10.48;3.20;;;;;;;18.05;52.82;103141.81;4933798;29;20031;-77
2021/04/13 07:51:40;;;;;;;8.20;2.67;;;;;;;18.01;52.29;103143.06;4947336;28;20061;-78
2021/04/13 07:54:30;;;;;;;11.75;3.38;;;;;;;17.98;51.74;103145.94;4941595;29;20039;-78
2021/04/13 07:57:01;;;;;;;20.13;5.00;;;;;;;17.96;51.60;103140.78;4943028;28;20110;-77
2021/04/13 07:59:51;;;;;;;11.52;4.32;;;;;;;17.92;51.32;103145.50;4952724;29;20044;-78
2021/04/13 08:02:17;;;;;;;14.77;3.90;;;;;;;17.90;50.70;103150.09;4944788;28;20155;-79
2021/04/13 08:04:48;;;;;;;11.30;3.58;;;;;;;17.85;50.34;103147.00;4932165;29;20126;-73
2021/04/13 08:07:19;;;;;;;9.00;3.58;;;;;;;17.82;50.10;103149.91;4941536;28;20253;-76
2021/04/13 08:09:47;;;;;;;9.65;3.60;;;;;;;17.77;49.53;103145.94;4952172;28;20059;-79
2021/04/13 08:12:20;;;;;;;11.27;3.45;;;;;;;17.72;49.57;103151.66;4951969;29;20530;-79
2021/04/13 08:14:50;;;;;;;8.55;2.88;;;;;;;17.68;49.24;103152.88;4952094;28;20455;-79
2021/04/13 08:17:23;;;;;;;11.90;3.33;;;;;;;17.65;48.87;103150.44;4952597;29;20077;-78
2021/04/13 08:20:00;;;;;;;7.85;2.75;;;;;;;17.62;48.65;103153.34;4952773;29;20043;-79
2021/04/13 08:22:27;;;;;;;9.77;2.40;;;;;;;17.63;49.05;103152.38;4939906;28;20031;-77
2021/04/13 08:24:58;;;;;;;7.68;2.60;;;;;;;17.60;48.69;103149.97;4940953;28;20749;-78
2021/04/13 08:27:40;;;;;;;9.32;2.88;;;;;;;17.58;48.51;103152.75;4952930;29;20114;-77
2021/04/13 08:30:20;;;;;;;5.60;2.20;;;;;;;17.58;48.30;103162.53;4950847;28;20399;-77
2021/04/13 08:32:53;;;;;;;4.85;1.90;;;;;;;17.57;48.17;103160.84;4952301;28;20085;-77
2021/04/13 08:35:51;;;;;;;7.43;1.98;;;;;;;17.54;48.00;103159.28;4921450;29;20047;-77
2021/04/13 08:38:38;;;;;;;6.45;2.08;;;;;;;17.53;48.22;103160.25;4852917;28;20403;-79
2021/04/13 08:41:24;;;;;;;8.52;2.58;;;;;;;17.51;47.84;103159.53;4952523;29;20721;-76
2021/04/13 08:44:00;;;;;;;6.40;1.98;;;;;;;17.49;48.03;103155.31;4915493;29;20054;-78
2021/04/13 08:46:46;;;;;;;6.15;1.85;;;;;;;17.49;47.76;103156.16;4946147;29;20062;-80
2021/04/13 08:49:45;;;;;;;5.47;1.80;;;;;;;17.46;47.65;103158.22;4951495;28;20027;-79
2021/04/13 08:52:23;;;;;;;4.95;1.40;;;;;;;17.46;47.62;103160.88;4950820;28;20074;-76
2021/04/13 08:54:52;;;;;;;5.93;1.40;;;;;;;17.49;47.53;103165.94;4951420;29;20099;-76
2021/04/13 08:57:17;;;;;;;4.20;1.58;;;;;;;17.45;47.39;103160.03;4951221;28;20230;-79
2021/04/13 08:59:50;;;;;;;4.18;1.77;;;;;;;17.44;47.31;103152.22;4951268;28;20043;-79
2021/04/13 09:02:29;;;;;;;4.88;1.48;;;;;;;17.43;47.51;103163.78;4952587;28;20122;-79
2021/04/13 09:05:06;;;;;;;4.18;1.80;;;;;;;17.42;47.34;103162.09;4950149;28;20051;-79
2021/04/13 09:07:41;;;;;;;2.95;1.15;;;;;;;17.40;47.12;103164.88;4951495;29;20145;-79
2021/04/13 09:10:37;;;;;;;3.90;1.77;;;;;;;17.38;47.29;103160.69;4950802;28;20050;-79
2021/04/13 09:13:21;;;;;;;3.65;1.73;;;;;;;17.35;47.11;103154.63;4950311;28;20106;-80
2021/04/13 09:15:56;;;;;;;3.55;1.13;;;;;;;17.35;46.94;103153.78;4919782;29;20115;-79
2021/04/13 09:18:40;;;;;;;5.22;1.35;;;;;;;17.34;46.91;103160.91;4948110;28;20055;-79
2021/04/13 09:21:20;;;;;;;5.27;1.30;;;;;;;17.32;46.94;103164.66;4952207;29;20039;-78
2021/04/13 09:24:03;;;;;;;2.22;0.98;;;;;;;17.32;46.71;103159.34;4950151;28;20672;-79
2021/04/13 09:27:07;;;;;;;2.23;1.10;;;;;;;17.27;46.47;103167.69;4943017;29;20036;-77
2021/04/13 09:29:45;;;;;;;3.28;1.20;;;;;;;17.25;46.62;103166.97;4921260;29;20749;-78
2021/04/13 09:32:33;;;;;;;4.88;1.20;;;;;;;17.23;46.59;103168.91;4940166;28;20641;-78
2021/04/13 09:35:26;;;;;;;2.53;1.27;;;;;;;17.23;46.58;103166.25;4949248;28;20045;-75
2021/04/13 09:38:13;;;;;;;5.38;1.17;;;;;;;17.23;46.30;103162.75;4951140;29;20053;-75
2021/04/13 09:40:50;;;;;;;5.72;1.70;;;;;;;17.21;46.14;103154.94;4939317;29;20035;-78
2021/04/13 09:43:34;;;;;;;3.63;1.23;;;;;;;17.19;46.47;103156.84;4950517;28;20019;-77
2021/04/13 09:46:21;;;;;;;3.92;1.13;;;;;;;17.17;46.49;103155.28;4951909;29;20355;-78
2021/04/13 09:49:10;;;;;;;5.82;1.63;;;;;;;17.18;46.49;103157.81;4950072;28;20044;-78
2021/04/13 09:51:39;;;;;;;5.45;1.40;;;;;;;17.19;46.22;103159.50;4940050;28;20054;-76
2021/04/13 09:54:28;;;;;;;4.47;1.40;;;;;;;17.17;46.04;103158.78;4949055;28;20039;-78
2021/04/13 09:57:09;;;;;;;3.65;1.42;;;;;;;17.17;46.04;103161.44;4937391;29;20498;-75
2021/04/13 09:59:41;;;;;;;3.53;1.20;;;;;;;17.16;45.96;103159.75;4920387;28;20035;-72
2021/04/13 10:02:43;;;;;;;2.80;1.20;;;;;;;17.13;46.04;103160.00;4941546;28;20482;-77
2021/04/13 10:05:13;;;;;;;2.50;1.10;;;;;;;17.15;45.71;103173.13;4949244;29;20143;-76
2021/04/13 10:07:55;;;;;;;5.85;1.10;;;;;;;17.13;45.66;103172.41;4932791;29;20035;-75
2021/04/13 10:10:43;;;;;;;2.70;1.30;;;;;;;17.12;45.62;103160.13;4949077;28;20102;-78
2021/04/13 10:13:41;;;;;;;3.17;1.10;;;;;;;17.09;45.72;103158.56;4937566;29;20133;-77
2021/04/13 10:16:45;;;;;;;2.35;1.30;;;;;;;17.07;45.36;103160.50;4944220;29;20114;-77
2021/04/13 10:19:43;;;;;;;3.45;1.23;;;;;;;17.06;45.57;103164.13;4940690;28;20082;-78
2021/04/13 10:22:30;;;;;;;5.55;1.60;;;;;;;17.08;45.50;103161.34;4948264;29;20757;-75
2021/04/13 10:25:26;;;;;;;5.30;1.33;;;;;;;17.05;45.33;103165.09;4950289;28;20086;-78
2021/04/13 10:28:04;;;;;;;2.63;1.15;;;;;;;17.05;45.43;103159.78;4949984;28;20027;-70
2021/04/13 10:31:04;;;;;;;5.65;1.40;;;;;;;17.05;45.17;103168.59;4950957;29;20037;-77
2021/04/13 10:33:47;;;;;;;5.55;1.23;;;;;;;17.05;45.13;103170.41;4950317;28;20479;-78
2021/04/13 10:36:37;;;;;;;5.47;1.27;;;;;;;17.03;45.05;103167.00;4949810;28;20031;-77
2021/04/13 10:39:33;;;;;;;3.10;1.30;;;;;;;17.02;45.06;103171.44;4949695;29;20031;-78
2021/04/13 10:42:24;;;;;;;2.42;1.08;;;;;;;17.01;45.17;103169.78;4949699;28;20110;-77
2021/04/13 10:45:20;;;;;;;4.25;1.20;;;;;;;17.00;45.01;103169.91;4950153;28;20062;-77
2021/04/13 10:47:58;;;;;;;2.47;1.30;;;;;;;16.99;44.66;103165.56;4954033;28;20035;-78
2021/04/13 10:50:42;;;;;;;4.00;1.15;;;;;;;16.97;45.01;103167.50;4933515;29;20085;-75
2021/04/13 10:53:34;;;;;;;4.47;1.20;;;;;;;16.97;45.16;103172.78;4946133;29;20070;-78
2021/04/13 10:56:29;;;;;;;2.15;1.00;;;;;;;16.98;44.88;103166.53;4947998;29;20059;-76
2021/04/13 10:59:32;;;;;;;2.83;1.08;;;;;;;16.97;44.94;103160.38;4951307;29;20116;-76
2021/04/13 11:02:34;;;;;;;4.50;1.27;;;;;;;16.97;44.69;103156.88;4952220;28;20323;-78
2021/04/13 11:05:30;;;;;;;3.45;1.05;;;;;;;16.97;44.59;103162.19;4954336;29;20043;-78
2021/04/13 11:08:20;;;;;;;3.15;0.93;;;;;;;16.95;44.69;103156.16;4947195;29;20023;-78
2021/04/13 11:10:58;;;;;;;3.45;1.00;;;;;;;16.93;44.30;103158.09;4937211;29;20062;-78
2021/04/13 11:13:54;;;;;;;3.92;1.10;;;;;;;16.91;44.36;103160.88;4953708;29;20138;-77
2021/04/13 11:16:35;;;;;;;3.58;1.10;;;;;;;16.90;44.25;103155.72;4947775;28;20078;-78
2021/04/13 11:19:24;;;;;;;6.45;1.38;;;;;;;16.88;44.01;103153.16;4953434;28;20510;-78
2021/04/13 11:22:27;;;;;;;3.45;1.00;;;;;;;16.88;44.27;103147.84;4954132;29;20041;-77
2021/04/13 11:25:11;;;;;;;4.03;1.10;;;;;;;16.89;44.22;103154.03;4947794;28;20089;-78
2021/04/13 11:27:58;;;;;;;3.33;1.00;;;;;;;16.89;44.35;103154.88;4947194;29;20035;-78
2021/04/13 11:30:53;;;;;;;2.30;0.80;;;;;;;16.91;43.98;103160.03;4936826;29;20031;-75
2021/04/13 11:33:33;;;;;;;6.05;1.05;;;;;;;16.90;44.11;103151.25;4935145;28;20039;-75
2021/04/13 11:36:09;;;;;;;2.50;0.80;;;;;;;16.92;44.17;103153.78;4953348;28;20027;-77
2021/04/13 11:39:02;;;;;;;3.65;1.10;;;;;;;16.91;44.15;103157.38;4951538;28;20478;-78
2021/04/13 11:41:42;;;;;;;4.55;0.98;;;;;;;16.93;44.01;103158.09;4952926;28;20461;-78
2021/04/13 11:44:38;;;;;;;3.58;0.90;;;;;;;16.89;44.00;103152.22;4940902;28;20079;-78
2021/04/13 11:47:19;;;;;;;1.83;0.80;;;;;;;16.89;43.88;103154.03;4952879;28;20031;-76
2021/04/13 11:50:20;;;;;;;2.92;1.58;;;;;;;16.88;43.97;103162.91;4936315;29;20117;-77
2021/04/13 11:52:52;;;;;;;2.30;0.90;;;;;;;16.91;43.76;103162.69;4932673;29;20047;-78
2021/04/13 11:55:30;;;;;;;3.30;1.27;;;;;;;16.90;44.10;103163.66;4948177;28;20031;-77
2021/04/13 11:58:25;;;;;;;3.17;1.20;;;;;;;16.92;44.07;103167.03;4942513;28;20039;-78
2021/04/13 12:01:12;;;;;;;2.78;1.10;;;;;;;16.89;43.86;103173.41;4935304;29;20070;-72
2021/04/13 12:04:02;;;;;;;4.07;1.15;;;;;;;16.92;44.19;103172.31;4947675;29;20111;-77
2021/04/13 12:07:04;;;;;;;4.38;1.35;;;;;;;16.88;44.51;103174.34;4932868;28;20043;-78
2021/04/13 12:09:45;;;;;;;2.22;1.33;;;;;;;16.89;44.54;103178.72;4855292;29;20056;-78
2021/04/13 12:12:29;;;;;;;2.83;1.10;;;;;;;16.88;44.59;103173.50;4941587;28;20071;-77
2021/04/13 12:14:55;;;;;;;3.65;1.67;;;;;;;16.89;44.72;103172.56;4935936;29;20035;-78